createdAt,value
2017-07-05T00:00:25.209Z,0
2017-07-05T00:01:34.475Z,0
2017-07-05T00:02:43.759Z,0
2017-07-05T00:03:52.417Z,0
2017-07-05T00:05:01.684Z,0
2017-07-05T00:06:10.662Z,0
2017-07-05T00:07:19.949Z,0
2017-07-05T00:08:29.210Z,0
2017-07-05T00:09:38.488Z,0
2017-07-05T00:10:47.772Z,0
2017-07-05T00:11:56.431Z,0
2017-07-05T00:13:05.708Z,0
2017-07-05T00:14:14.988Z,0
2017-07-05T00:15:24.901Z,0
2017-07-05T00:16:33.544Z,0
2017-07-05T00:17:42.501Z,0
2017-07-05T00:18:51.776Z,0
2017-07-05T00:20:00.740Z,0
2017-07-05T00:21:09.698Z,0
2017-07-05T00:22:18.651Z,0
2017-07-05T00:23:27.624Z,0
2017-07-05T00:24:37.225Z,0
2017-07-05T00:25:46.194Z,0
2017-07-05T00:26:54.849Z,0
2017-07-05T00:28:04.455Z,0
2017-07-05T00:29:13.415Z,0
2017-07-05T00:30:22.060Z,0
2017-07-05T00:31:30.707Z,0
2017-07-05T00:32:40.301Z,0
2017-07-05T00:33:49.253Z,0
2017-07-05T00:34:58.202Z,0
2017-07-05T00:36:07.161Z,0
2017-07-05T00:37:16.436Z,0
2017-07-05T00:38:25.389Z,0
2017-07-05T00:39:34.676Z,0
2017-07-05T00:40:44.274Z,0
2017-07-05T00:41:53.539Z,0
2017-07-05T00:43:02.799Z,0
2017-07-05T00:44:11.757Z,0
2017-07-05T00:45:21.346Z,0
2017-07-05T00:46:30.950Z,0
2017-07-05T00:47:39.590Z,0
2017-07-05T00:48:48.913Z,0
2017-07-05T00:49:57.873Z,0
2017-07-05T00:51:06.846Z,0
2017-07-05T00:52:15.864Z,0
2017-07-05T00:53:25.134Z,0
2017-07-05T00:54:34.411Z,0
2017-07-05T00:55:43.388Z,0
2017-07-05T00:56:52.348Z,0
2017-07-05T00:58:01.307Z,0
2017-07-05T00:59:10.280Z,0
2017-07-05T01:00:20.185Z,0
2017-07-05T01:01:29.131Z,0
2017-07-05T01:02:38.406Z,0
2017-07-05T01:03:47.679Z,0
2017-07-05T01:04:56.644Z,0
2017-07-05T01:06:05.920Z,0
2017-07-05T01:07:15.217Z,0
2017-07-05T01:08:24.486Z,0
2017-07-05T01:09:33.763Z,0
2017-07-05T01:10:42.726Z,0
2017-07-05T01:11:51.999Z,0
2017-07-05T01:13:01.287Z,0
2017-07-05T01:14:09.936Z,0
2017-07-05T01:15:18.893Z,0
2017-07-05T01:16:27.846Z,0
2017-07-05T01:17:36.799Z,0
2017-07-05T01:18:45.757Z,0
2017-07-05T01:19:55.028Z,0
2017-07-05T01:21:03.986Z,0
2017-07-05T01:22:12.966Z,0
2017-07-05T01:23:21.917Z,0
2017-07-05T01:24:30.582Z,0
2017-07-05T01:25:39.846Z,0
2017-07-05T01:26:48.483Z,0
2017-07-05T01:27:57.124Z,0
2017-07-05T01:29:06.388Z,0
2017-07-05T01:30:15.352Z,0
2017-07-05T01:31:24.302Z,0
2017-07-05T01:32:33.572Z,0
2017-07-05T01:33:42.839Z,0
2017-07-05T01:34:52.102Z,0
2017-07-05T01:36:01.377Z,0
2017-07-05T01:37:10.332Z,0
2017-07-05T01:38:19.593Z,0
2017-07-05T01:39:28.548Z,0
2017-07-05T01:40:37.511Z,0
2017-07-05T01:41:47.097Z,0
2017-07-05T01:42:55.740Z,0
2017-07-05T01:44:04.381Z,0
2017-07-05T01:45:14.280Z,0
2017-07-05T01:46:23.546Z,0
2017-07-05T01:47:32.498Z,0
2017-07-05T01:48:42.080Z,0
2017-07-05T01:49:51.349Z,0
2017-07-05T01:51:00.296Z,0
2017-07-05T01:52:09.569Z,0
2017-07-05T01:53:18.838Z,0
2017-07-05T01:54:27.797Z,0
2017-07-05T01:55:36.749Z,0
2017-07-05T01:56:46.022Z,0
2017-07-05T01:57:55.293Z,0
2017-07-05T01:59:04.879Z,0
2017-07-05T02:00:14.144Z,0
2017-07-05T02:01:23.095Z,0
2017-07-05T02:02:32.358Z,0
2017-07-05T02:03:40.994Z,0
2017-07-05T02:04:49.944Z,0
2017-07-05T02:05:58.915Z,0
2017-07-05T02:07:08.177Z,0
2017-07-05T02:08:16.824Z,0
2017-07-05T02:09:26.095Z,0
2017-07-05T02:10:35.683Z,0
2017-07-05T02:11:44.633Z,0
2017-07-05T02:12:53.900Z,0
2017-07-05T02:14:02.551Z,0
2017-07-05T02:15:12.134Z,0
2017-07-05T02:16:21.089Z,0
2017-07-05T02:17:29.725Z,0
2017-07-05T02:18:38.681Z,0
2017-07-05T02:19:47.965Z,0
2017-07-05T02:20:57.230Z,0
2017-07-05T02:22:05.869Z,0
2017-07-05T02:23:15.455Z,0
2017-07-05T02:24:24.412Z,0
2017-07-05T02:25:33.055Z,0
2017-07-05T02:26:42.324Z,0
2017-07-05T02:27:51.603Z,0
2017-07-05T02:29:00.245Z,0
2017-07-05T02:30:09.225Z,0
2017-07-05T02:31:17.872Z,0
2017-07-05T02:32:26.513Z,0
2017-07-05T02:33:35.794Z,0
2017-07-05T02:34:44.437Z,0
2017-07-05T02:35:53.399Z,0
2017-07-05T02:37:02.984Z,0
2017-07-05T02:38:12.559Z,0
2017-07-05T02:39:21.502Z,0
2017-07-05T02:40:31.088Z,0
2017-07-05T02:41:40.390Z,0
2017-07-05T02:42:49.315Z,0
2017-07-05T02:43:58.266Z,0
2017-07-05T02:45:07.545Z,0
2017-07-05T02:46:16.495Z,0
2017-07-05T02:47:25.765Z,0
2017-07-05T02:48:34.402Z,0
2017-07-05T02:49:43.669Z,0
2017-07-05T02:50:52.621Z,0
2017-07-05T02:52:01.574Z,0
2017-07-05T02:53:10.526Z,0
2017-07-05T02:54:20.106Z,0
2017-07-05T02:55:28.741Z,0
2017-07-05T02:56:37.702Z,0
2017-07-05T02:57:47.596Z,0
2017-07-05T02:58:56.245Z,0
2017-07-05T03:00:05.216Z,0
2017-07-05T03:01:14.797Z,0
2017-07-05T03:02:24.703Z,0
2017-07-05T03:03:33.975Z,0
2017-07-05T03:04:42.993Z,0
2017-07-05T03:05:52.266Z,0
2017-07-05T03:07:01.225Z,0
2017-07-05T03:08:10.167Z,0
2017-07-05T03:09:19.118Z,0
2017-07-05T03:10:28.082Z,0
2017-07-05T03:11:37.365Z,0
2017-07-05T03:12:46.310Z,0
2017-07-05T03:13:55.582Z,0
2017-07-05T03:15:05.166Z,0
2017-07-05T03:16:14.752Z,0
2017-07-05T03:17:24.020Z,0
2017-07-05T03:18:32.979Z,0
2017-07-05T03:19:42.246Z,0
2017-07-05T03:20:51.197Z,0
2017-07-05T03:21:59.831Z,0
2017-07-05T03:23:08.467Z,0
2017-07-05T03:24:17.097Z,0
2017-07-05T03:25:26.363Z,0
2017-07-05T03:26:35.313Z,0
2017-07-05T03:27:44.580Z,0
2017-07-05T03:28:53.230Z,0
2017-07-05T03:30:02.182Z,0
2017-07-05T03:31:11.761Z,0
2017-07-05T03:32:20.716Z,0
2017-07-05T03:33:29.349Z,0
2017-07-05T03:34:38.627Z,0
2017-07-05T03:35:48.522Z,0
2017-07-05T03:36:57.161Z,0
2017-07-05T03:38:06.436Z,0
2017-07-05T03:39:15.718Z,0
2017-07-05T03:40:24.353Z,0
2017-07-05T03:41:33.001Z,0
2017-07-05T03:42:41.968Z,0
2017-07-05T03:43:51.565Z,0
2017-07-05T03:45:00.846Z,0
2017-07-05T03:46:10.107Z,0
2017-07-05T03:47:19.058Z,0
2017-07-05T03:48:28.334Z,0
2017-07-05T03:49:37.289Z,0
2017-07-05T03:50:46.249Z,0
2017-07-05T03:51:55.852Z,0
2017-07-05T03:53:04.492Z,0
2017-07-05T03:54:13.774Z,0
2017-07-05T03:55:22.735Z,0
2017-07-05T03:56:31.683Z,0
2017-07-05T03:57:40.637Z,0
2017-07-05T03:58:49.305Z,0
2017-07-05T03:59:58.553Z,0
2017-07-05T04:01:07.190Z,5
2017-07-05T04:02:16.794Z,5
2017-07-05T04:03:26.370Z,5
2017-07-05T04:04:35.325Z,5
2017-07-05T04:05:44.596Z,5
2017-07-05T04:06:53.234Z,5
2017-07-05T04:08:02.506Z,5
2017-07-05T04:09:11.776Z,5
2017-07-05T04:10:21.048Z,5
2017-07-05T04:11:30.014Z,5
2017-07-05T04:12:39.597Z,5
2017-07-05T04:13:48.872Z,5
2017-07-05T04:14:58.144Z,5
2017-07-05T04:16:07.410Z,5
2017-07-05T04:17:16.056Z,5
2017-07-05T04:18:24.693Z,5
2017-07-05T04:19:33.329Z,5
2017-07-05T04:20:41.965Z,5
2017-07-05T04:21:51.541Z,5
2017-07-05T04:23:00.175Z,10
2017-07-05T04:24:09.122Z,10
2017-07-05T04:25:18.077Z,10
2017-07-05T04:27:31.229Z,10
2017-07-05T04:28:40.501Z,10
2017-07-05T04:29:49.458Z,10
2017-07-05T04:30:59.360Z,10
2017-07-05T04:32:08.625Z,10
2017-07-05T04:33:17.584Z,10
2017-07-05T04:34:27.493Z,10
2017-07-05T04:35:36.443Z,10
2017-07-05T04:36:45.397Z,10
2017-07-05T04:37:54.672Z,10
2017-07-05T04:39:03.615Z,10
2017-07-05T04:40:12.255Z,10
2017-07-05T04:41:21.520Z,10
2017-07-05T04:42:30.465Z,15
2017-07-05T04:43:39.425Z,15
2017-07-05T04:44:48.384Z,15
2017-07-05T04:45:57.654Z,15
2017-07-05T04:47:06.614Z,15
2017-07-05T04:48:15.257Z,15
2017-07-05T04:49:24.215Z,15
2017-07-05T04:50:33.176Z,15
2017-07-05T04:51:42.130Z,15
2017-07-05T04:52:51.096Z,15
2017-07-05T04:53:59.748Z,15
2017-07-05T04:55:08.704Z,15
2017-07-05T04:56:17.973Z,15
2017-07-05T04:57:26.936Z,15
2017-07-05T04:58:36.197Z,15
2017-07-05T04:59:44.844Z,15
2017-07-05T05:00:53.790Z,15
2017-07-05T05:02:03.069Z,15
2017-07-05T05:03:12.018Z,15
2017-07-05T05:04:21.909Z,15
2017-07-05T05:05:31.181Z,15
2017-07-05T05:06:40.453Z,15
2017-07-05T05:07:49.121Z,15
2017-07-05T05:08:58.395Z,15
2017-07-05T05:10:07.666Z,20
2017-07-05T05:11:16.941Z,20
2017-07-05T05:12:25.890Z,20
2017-07-05T05:13:34.849Z,20
2017-07-05T05:14:44.127Z,20
2017-07-05T05:15:53.713Z,20
2017-07-05T05:17:02.979Z,25
2017-07-05T05:18:12.261Z,25
2017-07-05T05:19:21.223Z,25
2017-07-05T05:20:29.869Z,25
2017-07-05T05:21:38.833Z,30
2017-07-05T05:22:47.786Z,30
2017-07-05T05:23:57.046Z,35
2017-07-05T05:25:05.698Z,40
2017-07-05T05:26:14.658Z,45
2017-07-05T05:27:23.300Z,45
2017-07-05T05:28:32.260Z,50
2017-07-05T05:29:40.973Z,50
2017-07-05T05:30:49.929Z,50
2017-07-05T05:31:58.884Z,50
2017-07-05T05:33:07.960Z,50
2017-07-05T05:34:17.249Z,50
2017-07-05T05:35:26.272Z,50
2017-07-05T05:36:35.249Z,50
2017-07-05T05:37:43.894Z,50
2017-07-05T05:38:53.162Z,55
2017-07-05T05:40:01.827Z,55
2017-07-05T05:41:10.475Z,55
2017-07-05T05:42:19.213Z,55
2017-07-05T05:43:28.483Z,55
2017-07-05T05:44:37.756Z,55
2017-07-05T05:45:47.341Z,60
2017-07-05T05:46:56.317Z,60
2017-07-05T05:48:05.717Z,60
2017-07-05T05:49:14.988Z,60
2017-07-05T05:50:23.639Z,155
2017-07-05T05:51:32.929Z,65
2017-07-05T05:52:42.841Z,60
2017-07-05T05:53:51.800Z,60
2017-07-05T05:55:00.445Z,60
2017-07-05T05:56:09.407Z,60
2017-07-05T05:57:18.703Z,60
2017-07-05T05:58:28.010Z,60
2017-07-05T05:59:36.984Z,60
2017-07-05T06:00:45.950Z,65
2017-07-05T06:01:55.236Z,65
2017-07-05T06:03:04.215Z,65
2017-07-05T06:04:13.496Z,65
2017-07-05T06:05:22.453Z,65
2017-07-05T06:06:32.044Z,65
2017-07-05T06:07:40.682Z,70
2017-07-05T06:08:49.643Z,70
2017-07-05T06:09:58.938Z,70
2017-07-05T06:11:07.910Z,70
2017-07-05T06:12:17.183Z,70
2017-07-05T06:13:26.837Z,70
2017-07-05T06:14:35.500Z,75
2017-07-05T06:15:44.481Z,75
2017-07-05T06:16:53.155Z,75
2017-07-05T06:18:02.752Z,80
2017-07-05T06:19:11.395Z,80
2017-07-05T06:20:20.530Z,80
2017-07-05T06:21:30.121Z,80
2017-07-05T06:22:38.805Z,80
2017-07-05T06:23:47.778Z,80
2017-07-05T06:24:56.748Z,80
2017-07-05T06:26:05.725Z,85
2017-07-05T06:27:15.004Z,85
2017-07-05T06:28:23.966Z,85
2017-07-05T06:29:33.574Z,85
2017-07-05T06:30:43.206Z,90
2017-07-05T06:31:51.882Z,90
2017-07-05T06:33:01.186Z,100
2017-07-05T06:34:10.160Z,95
2017-07-05T06:35:19.794Z,205
2017-07-05T06:36:28.771Z,450
2017-07-05T06:37:38.385Z,455
2017-07-05T06:38:47.709Z,345
2017-07-05T06:39:56.679Z,205
2017-07-05T06:41:05.647Z,215
2017-07-05T06:42:14.613Z,250
2017-07-05T06:43:23.920Z,205
2017-07-05T06:44:33.210Z,115
2017-07-05T06:45:42.198Z,100
2017-07-05T06:46:51.915Z,95
2017-07-05T06:48:00.603Z,95
2017-07-05T06:49:09.265Z,90
2017-07-05T06:50:17.943Z,95
2017-07-05T06:51:27.235Z,95
2017-07-05T06:52:36.522Z,195
2017-07-05T06:53:45.480Z,285
2017-07-05T06:54:55.085Z,150
2017-07-05T06:56:03.762Z,100
2017-07-05T06:57:12.429Z,80
2017-07-05T06:58:21.088Z,70
2017-07-05T06:59:30.996Z,70
2017-07-05T07:00:40.279Z,90
2017-07-05T07:01:49.568Z,110
2017-07-05T07:02:58.555Z,125
2017-07-05T07:04:07.518Z,125
2017-07-05T07:05:16.842Z,130
2017-07-05T07:06:26.126Z,130
2017-07-05T07:07:34.801Z,130
2017-07-05T07:08:43.766Z,130
2017-07-05T07:09:52.737Z,130
2017-07-05T07:11:01.424Z,130
2017-07-05T07:12:10.501Z,130
2017-07-05T07:13:19.456Z,130
2017-07-05T07:14:28.452Z,130
2017-07-05T07:15:37.957Z,130
2017-07-05T07:16:47.242Z,135
2017-07-05T07:17:56.221Z,140
2017-07-05T07:19:05.195Z,140
2017-07-05T07:20:14.175Z,145
2017-07-05T07:21:23.135Z,150
2017-07-05T07:22:32.406Z,160
2017-07-05T07:23:41.057Z,170
2017-07-05T07:24:50.653Z,185
2017-07-05T07:25:59.944Z,210
2017-07-05T07:27:08.899Z,365
2017-07-05T07:28:17.862Z,675
2017-07-05T07:29:27.156Z,665
2017-07-05T07:30:36.123Z,670
2017-07-05T07:31:45.401Z,735
2017-07-05T07:32:54.698Z,810
2017-07-05T07:34:03.674Z,855
2017-07-05T07:35:12.335Z,830
2017-07-05T07:36:20.986Z,820
2017-07-05T07:37:30.588Z,820
2017-07-05T07:38:39.625Z,915
2017-07-05T07:39:48.620Z,920
2017-07-05T07:40:58.238Z,845
2017-07-05T07:42:07.209Z,810
2017-07-05T07:43:15.863Z,870
2017-07-05T07:44:24.519Z,775
2017-07-05T07:45:33.490Z,810
2017-07-05T07:46:42.162Z,860
2017-07-05T07:47:51.120Z,930
2017-07-05T07:49:00.711Z,920
2017-07-05T07:50:09.399Z,950
2017-07-05T07:51:18.363Z,1040
2017-07-05T07:52:27.320Z,960
2017-07-05T07:53:36.288Z,980
2017-07-05T07:54:45.887Z,945
2017-07-05T07:55:55.227Z,950
2017-07-05T07:57:04.506Z,945
2017-07-05T07:58:13.801Z,1040
2017-07-05T07:59:23.073Z,1010
2017-07-05T08:00:32.355Z,1025
2017-07-05T08:01:41.631Z,1045
2017-07-05T08:02:50.608Z,965
2017-07-05T08:04:00.229Z,940
2017-07-05T08:05:08.882Z,1025
2017-07-05T08:06:17.841Z,1050
2017-07-05T08:07:26.804Z,1070
2017-07-05T08:08:35.776Z,1075
2017-07-05T08:09:45.049Z,960
2017-07-05T08:10:54.033Z,1010
2017-07-05T08:12:02.684Z,1035
2017-07-05T08:13:11.984Z,1010
2017-07-05T08:14:20.957Z,1030
2017-07-05T08:15:29.685Z,1040
2017-07-05T08:16:38.337Z,1130
2017-07-05T08:17:47.296Z,1040
2017-07-05T08:18:56.572Z,945
2017-07-05T08:20:05.853Z,1075
2017-07-05T08:21:14.507Z,1095
2017-07-05T08:22:23.793Z,1080
2017-07-05T08:23:32.441Z,1125
2017-07-05T08:24:42.046Z,1125
2017-07-05T08:25:51.044Z,1125
2017-07-05T08:27:00.022Z,1225
2017-07-05T08:28:08.987Z,1130
2017-07-05T08:29:18.270Z,1195
2017-07-05T08:30:26.924Z,1165
2017-07-05T08:31:35.898Z,1035
2017-07-05T08:32:45.179Z,1075
2017-07-05T08:33:54.151Z,1060
2017-07-05T08:35:03.495Z,1150
2017-07-05T08:36:12.790Z,1005
2017-07-05T08:37:22.378Z,950
2017-07-05T08:38:31.339Z,965
2017-07-05T08:39:40.618Z,1015
2017-07-05T08:40:49.588Z,1115
2017-07-05T08:41:58.909Z,1095
2017-07-05T08:43:08.517Z,1145
2017-07-05T08:44:18.116Z,1130
2017-07-05T08:45:28.015Z,1145
2017-07-05T08:46:36.667Z,885
2017-07-05T08:47:45.937Z,1085
2017-07-05T08:48:55.549Z,1060
2017-07-05T08:50:04.544Z,975
2017-07-05T08:51:13.824Z,855
2017-07-05T08:52:22.487Z,710
2017-07-05T08:53:31.463Z,260
2017-07-05T08:54:40.759Z,145
2017-07-05T08:55:50.074Z,100
2017-07-05T08:56:58.780Z,85
2017-07-05T08:58:07.738Z,65
2017-07-05T08:59:17.329Z,50
2017-07-05T09:00:26.625Z,50
2017-07-05T09:01:35.281Z,50
2017-07-05T09:02:44.251Z,55
2017-07-05T09:03:53.213Z,60
2017-07-05T09:05:02.183Z,65
2017-07-05T09:06:10.838Z,95
2017-07-05T09:07:19.809Z,95
2017-07-05T09:08:28.466Z,80
2017-07-05T09:09:37.753Z,60
2017-07-05T09:10:46.719Z,50
2017-07-05T09:11:55.702Z,40
2017-07-05T09:13:05.014Z,40
2017-07-05T09:14:14.351Z,40
2017-07-05T09:15:23.634Z,50
2017-07-05T09:16:33.234Z,60
2017-07-05T09:17:42.522Z,65
2017-07-05T09:18:51.487Z,70
2017-07-05T09:20:00.137Z,65
2017-07-05T09:21:08.803Z,60
2017-07-05T09:22:17.574Z,55
2017-07-05T09:23:26.239Z,50
2017-07-05T09:24:35.208Z,50
2017-07-05T09:25:44.490Z,50
2017-07-05T09:26:54.102Z,45
2017-07-05T09:28:03.388Z,45
2017-07-05T09:29:12.667Z,55
2017-07-05T09:30:21.651Z,55
2017-07-05T09:31:30.641Z,55
2017-07-05T09:32:39.633Z,60
2017-07-05T09:33:48.608Z,55
2017-07-05T09:34:57.887Z,70
2017-07-05T09:36:07.170Z,70
2017-07-05T09:37:16.454Z,70
2017-07-05T09:38:25.721Z,65
2017-07-05T09:39:34.686Z,60
2017-07-05T09:40:43.962Z,55
2017-07-05T09:41:53.302Z,65
2017-07-05T09:43:02.266Z,60
2017-07-05T09:44:11.559Z,50
2017-07-05T09:45:21.154Z,55
2017-07-05T09:46:30.123Z,50
2017-07-05T09:47:40.033Z,55
2017-07-05T09:48:49.333Z,50
2017-07-05T09:49:59.249Z,55
2017-07-05T09:51:07.923Z,50
2017-07-05T09:52:16.885Z,45
2017-07-05T09:53:26.164Z,40
2017-07-05T09:54:35.447Z,50
2017-07-05T09:55:44.720Z,50
2017-07-05T09:56:53.372Z,60
2017-07-05T09:58:02.335Z,65
2017-07-05T09:59:11.931Z,60
2017-07-05T10:00:21.289Z,50
2017-07-05T10:01:30.249Z,55
2017-07-05T10:02:39.214Z,60
2017-07-05T10:03:48.509Z,55
2017-07-05T10:04:57.179Z,45
2017-07-05T10:06:06.455Z,50
2017-07-05T10:07:15.411Z,50
2017-07-05T10:08:24.378Z,55
2017-07-05T10:09:33.975Z,55
2017-07-05T10:10:42.938Z,50
2017-07-05T10:11:51.909Z,50
2017-07-05T10:13:01.823Z,45
2017-07-05T10:14:10.784Z,50
2017-07-05T10:15:20.070Z,45
2017-07-05T10:16:29.682Z,45
2017-07-05T10:17:38.640Z,50
2017-07-05T10:18:47.915Z,50
2017-07-05T10:19:57.198Z,50
2017-07-05T10:21:06.490Z,45
2017-07-05T10:22:15.766Z,45
2017-07-05T10:23:24.423Z,45
2017-07-05T10:24:33.400Z,45
2017-07-05T10:25:42.361Z,45
2017-07-05T10:26:51.965Z,45
2017-07-05T10:28:01.251Z,40
2017-07-05T10:29:11.162Z,40
2017-07-05T10:30:19.841Z,35
2017-07-05T10:31:28.859Z,35
2017-07-05T10:32:38.470Z,35
2017-07-05T10:33:47.445Z,35
2017-07-05T10:34:56.416Z,35
2017-07-05T10:36:06.321Z,35
2017-07-05T10:37:15.609Z,30
2017-07-05T10:38:24.885Z,35
2017-07-05T10:39:33.537Z,45
2017-07-05T10:40:42.511Z,45
2017-07-05T10:41:51.805Z,45
2017-07-05T10:43:00.776Z,45
2017-07-05T10:44:10.072Z,45
2017-07-05T10:45:19.357Z,45
2017-07-05T10:46:28.649Z,50
2017-07-05T10:47:37.619Z,50
2017-07-05T10:48:46.278Z,50
2017-07-05T10:49:54.935Z,50
2017-07-05T10:51:04.222Z,45
2017-07-05T10:52:12.875Z,45
2017-07-05T10:53:22.154Z,50
2017-07-05T10:54:31.116Z,45
2017-07-05T10:55:40.095Z,45
2017-07-05T10:56:49.068Z,45
2017-07-05T10:57:58.338Z,50
2017-07-05T10:59:07.311Z,50
2017-07-05T11:00:16.589Z,50
2017-07-05T11:01:26.187Z,45
2017-07-05T11:02:35.168Z,45
2017-07-05T11:03:44.141Z,45
2017-07-05T11:04:53.117Z,40
2017-07-05T11:06:02.087Z,35
2017-07-05T11:07:11.677Z,35
2017-07-05T11:08:20.638Z,45
2017-07-05T11:09:29.620Z,45
2017-07-05T11:10:38.271Z,45
2017-07-05T11:11:47.250Z,50
2017-07-05T11:12:56.222Z,45
2017-07-05T11:14:05.191Z,45
2017-07-05T11:15:14.497Z,40
2017-07-05T11:16:23.781Z,40
2017-07-05T11:17:32.440Z,45
2017-07-05T11:18:41.432Z,45
2017-07-05T11:19:50.698Z,50
2017-07-05T11:21:00.335Z,50
2017-07-05T11:22:09.626Z,50
2017-07-05T11:23:18.653Z,50
2017-07-05T11:24:27.580Z,45
2017-07-05T11:25:36.535Z,45
2017-07-05T11:26:45.564Z,45
2017-07-05T11:27:54.890Z,45
2017-07-05T11:29:04.175Z,35
2017-07-05T11:30:12.834Z,35
2017-07-05T11:31:21.810Z,35
2017-07-05T11:32:31.109Z,35
2017-07-05T11:33:40.095Z,35
2017-07-05T11:34:49.059Z,35
2017-07-05T11:35:58.350Z,35
2017-07-05T11:37:07.321Z,35
2017-07-05T11:38:16.003Z,35
2017-07-05T11:39:24.672Z,30
2017-07-05T11:40:34.016Z,30
2017-07-05T11:41:42.763Z,30
2017-07-05T11:42:51.780Z,30
2017-07-05T11:44:01.062Z,30
2017-07-05T11:45:10.036Z,30
2017-07-05T11:46:18.703Z,25
2017-07-05T11:47:27.990Z,30
2017-07-05T11:48:37.276Z,30
2017-07-05T11:49:46.258Z,35
2017-07-05T11:50:54.904Z,30
2017-07-05T11:52:03.580Z,30
2017-07-05T11:53:12.234Z,30
2017-07-05T11:54:21.199Z,30
2017-07-05T11:55:30.178Z,30
2017-07-05T11:56:39.166Z,30
2017-07-05T11:57:48.451Z,25
2017-07-05T11:58:57.119Z,25
2017-07-05T12:00:06.100Z,25
2017-07-05T12:01:15.380Z,25
2017-07-05T12:02:24.347Z,25
2017-07-05T12:03:33.310Z,25
2017-07-05T12:04:42.270Z,25
2017-07-05T12:05:50.966Z,25
2017-07-05T12:07:00.261Z,25
2017-07-05T12:08:09.223Z,20
2017-07-05T12:09:18.508Z,20
2017-07-05T12:10:27.520Z,20
2017-07-05T12:11:36.179Z,20
2017-07-05T12:12:45.472Z,20
2017-07-05T12:13:54.461Z,20
2017-07-05T12:15:03.757Z,20
2017-07-05T12:16:12.404Z,20
2017-07-05T12:17:21.700Z,20
2017-07-05T12:18:31.314Z,20
2017-07-05T12:19:40.300Z,25
2017-07-05T12:20:49.953Z,20
2017-07-05T12:21:58.615Z,20
2017-07-05T12:23:07.599Z,20
2017-07-05T12:24:16.585Z,20
2017-07-05T12:25:25.244Z,20
2017-07-05T12:26:33.907Z,25
2017-07-05T12:27:42.889Z,25
2017-07-05T12:28:52.199Z,20
2017-07-05T12:30:01.180Z,25
2017-07-05T12:31:10.468Z,25
2017-07-05T12:32:19.142Z,25
2017-07-05T12:33:28.459Z,30
2017-07-05T12:34:37.757Z,35
2017-07-05T12:35:46.730Z,35
2017-07-05T12:36:55.731Z,35
2017-07-05T12:38:04.389Z,30
2017-07-05T12:39:13.374Z,25
2017-07-05T12:40:22.358Z,25
2017-07-05T12:41:31.671Z,30
2017-07-05T12:42:40.968Z,25
2017-07-05T12:43:49.648Z,25
2017-07-05T12:44:58.935Z,20
2017-07-05T12:46:08.560Z,20
2017-07-05T12:47:17.234Z,20
2017-07-05T12:48:26.213Z,20
2017-07-05T12:49:35.199Z,15
2017-07-05T12:50:44.548Z,15
2017-07-05T12:51:54.150Z,20
2017-07-05T12:53:03.125Z,15
2017-07-05T12:54:12.433Z,25
2017-07-05T12:55:21.725Z,25
2017-07-05T12:56:30.688Z,25
2017-07-05T12:57:39.385Z,25
2017-07-05T12:58:48.679Z,25
2017-07-05T12:59:57.659Z,25
2017-07-05T13:01:06.623Z,25
2017-07-05T13:02:15.604Z,25
2017-07-05T13:03:24.893Z,20
2017-07-05T13:04:34.188Z,20
2017-07-05T13:05:42.844Z,20
2017-07-05T13:06:51.505Z,25
2017-07-05T13:08:00.465Z,25
2017-07-05T13:09:09.746Z,25
2017-07-05T13:10:18.708Z,25
2017-07-05T13:11:27.675Z,25
2017-07-05T13:12:36.325Z,20
2017-07-05T13:13:45.314Z,25
2017-07-05T13:14:54.290Z,25
2017-07-05T13:16:03.278Z,25
2017-07-05T13:17:12.257Z,25
2017-07-05T13:18:21.230Z,25
2017-07-05T13:19:30.208Z,25
2017-07-05T13:20:39.497Z,25
2017-07-05T13:21:48.799Z,25
2017-07-05T13:22:57.470Z,25
2017-07-05T13:24:06.463Z,25
2017-07-05T13:25:15.429Z,25
2017-07-05T13:26:24.719Z,30
2017-07-05T13:27:33.699Z,30
2017-07-05T13:28:42.978Z,30
2017-07-05T13:29:52.271Z,25
2017-07-05T13:31:01.249Z,25
2017-07-05T13:32:10.543Z,25
2017-07-05T13:33:19.831Z,25
2017-07-05T13:34:28.785Z,25
2017-07-05T13:35:37.753Z,25
2017-07-05T13:36:46.410Z,25
2017-07-05T13:37:55.078Z,30
2017-07-05T13:39:03.806Z,30
2017-07-05T13:40:12.448Z,30
2017-07-05T13:41:21.750Z,20
2017-07-05T13:42:31.682Z,20
2017-07-05T13:43:40.345Z,20
2017-07-05T13:44:49.335Z,25
2017-07-05T13:45:58.310Z,25
2017-07-05T13:47:07.592Z,25
2017-07-05T13:48:16.871Z,25
2017-07-05T13:49:25.867Z,30
2017-07-05T13:50:34.579Z,30
2017-07-05T13:51:43.551Z,30
2017-07-05T13:52:52.525Z,30
2017-07-05T13:54:01.666Z,30
2017-07-05T13:55:10.639Z,30
2017-07-05T13:56:19.614Z,25
2017-07-05T13:57:29.583Z,25
2017-07-05T13:58:38.959Z,25
2017-07-05T13:59:48.246Z,30
2017-07-05T14:00:57.525Z,30
2017-07-05T14:02:07.133Z,25
2017-07-05T14:03:16.441Z,30
2017-07-05T14:04:26.079Z,30
2017-07-05T14:05:35.692Z,30
2017-07-05T14:06:44.440Z,35
2017-07-05T14:07:53.410Z,35
2017-07-05T14:09:02.823Z,30
2017-07-05T14:10:11.794Z,30
2017-07-05T14:11:21.389Z,30
2017-07-05T14:12:30.679Z,30
2017-07-05T14:13:40.047Z,25
2017-07-05T14:14:49.022Z,25
2017-07-05T14:15:57.680Z,25
2017-07-05T14:17:06.970Z,25
2017-07-05T14:18:15.948Z,25
2017-07-05T14:19:24.978Z,20
2017-07-05T14:20:33.651Z,20
2017-07-05T14:21:43.251Z,25
2017-07-05T14:22:52.229Z,25
2017-07-05T14:24:00.896Z,20
2017-07-05T14:25:09.861Z,20
2017-07-05T14:26:18.846Z,20
2017-07-05T14:27:27.513Z,15
2017-07-05T14:28:36.200Z,15
2017-07-05T14:29:45.191Z,15
2017-07-05T14:30:54.185Z,10
2017-07-05T14:32:02.837Z,10
2017-07-05T14:33:11.833Z,15
2017-07-05T14:34:20.833Z,15
2017-07-05T14:35:30.107Z,15
2017-07-05T14:36:39.394Z,10
2017-07-05T14:37:48.360Z,10
2017-07-05T14:38:57.633Z,15
2017-07-05T14:40:06.603Z,15
2017-07-05T14:41:15.586Z,15
2017-07-05T14:42:24.564Z,15
2017-07-05T14:43:33.565Z,15
2017-07-05T14:44:42.850Z,15
2017-07-05T14:45:51.812Z,15
2017-07-05T14:47:01.158Z,15
2017-07-05T14:48:09.836Z,15
2017-07-05T14:49:18.479Z,15
2017-07-05T14:50:27.742Z,15
2017-07-05T14:51:36.706Z,15
2017-07-05T14:52:46.011Z,15
2017-07-05T14:53:54.676Z,15
2017-07-05T14:55:04.329Z,15
2017-07-05T14:56:13.324Z,20
2017-07-05T14:57:22.634Z,20
2017-07-05T14:58:31.921Z,20
2017-07-05T14:59:40.581Z,20
2017-07-05T15:00:49.275Z,15
2017-07-05T15:01:58.569Z,20
2017-07-05T15:03:07.533Z,20
2017-07-05T15:04:16.509Z,20
2017-07-05T15:05:25.792Z,15
2017-07-05T15:06:35.393Z,15
2017-07-05T15:07:44.385Z,15
2017-07-05T15:08:53.348Z,20
2017-07-05T15:10:02.006Z,20
2017-07-05T15:11:11.590Z,20
2017-07-05T15:12:20.614Z,20
2017-07-05T15:13:29.863Z,20
2017-07-05T15:14:39.179Z,20
2017-07-05T15:15:48.504Z,20
2017-07-05T15:16:57.799Z,20
2017-07-05T15:18:07.097Z,20
2017-07-05T15:19:16.059Z,20
2017-07-05T15:20:25.649Z,20
2017-07-05T15:21:34.310Z,20
2017-07-05T15:22:43.598Z,20
2017-07-05T15:23:52.259Z,20
2017-07-05T15:25:01.553Z,15
2017-07-05T15:26:10.530Z,15
2017-07-05T15:27:19.186Z,15
2017-07-05T15:28:28.466Z,15
2017-07-05T15:29:37.755Z,15
2017-07-05T15:30:47.046Z,15
2017-07-05T15:31:56.337Z,15
2017-07-05T15:33:04.989Z,15
2017-07-05T15:34:13.957Z,15
2017-07-05T15:35:23.243Z,15
2017-07-05T15:36:31.900Z,15
2017-07-05T15:37:40.871Z,15
2017-07-05T15:38:49.865Z,15
2017-07-05T15:39:59.202Z,20
2017-07-05T15:41:08.566Z,15
2017-07-05T15:42:17.864Z,15
2017-07-05T15:43:27.149Z,15
2017-07-05T15:44:36.428Z,15
2017-07-05T15:45:45.720Z,15
2017-07-05T15:46:54.676Z,15
2017-07-05T15:48:03.329Z,15
2017-07-05T15:49:11.982Z,15
2017-07-05T15:50:21.596Z,15
2017-07-05T15:51:30.892Z,15
2017-07-05T15:52:39.857Z,15
2017-07-05T15:53:48.823Z,15
2017-07-05T15:54:58.433Z,15
2017-07-05T15:56:07.722Z,15
2017-07-05T15:57:16.794Z,15
2017-07-05T15:58:26.388Z,20
2017-07-05T15:59:36.348Z,20
2017-07-05T16:00:45.635Z,15
2017-07-05T16:01:54.292Z,15
2017-07-05T16:03:04.019Z,15
2017-07-05T16:04:13.042Z,10
2017-07-05T16:05:22.010Z,10
2017-07-05T16:06:31.111Z,10
2017-07-05T16:07:40.074Z,10
2017-07-05T16:08:49.370Z,10
2017-07-05T16:09:58.642Z,10
2017-07-05T16:11:07.966Z,10
2017-07-05T16:12:16.927Z,10
2017-07-05T16:13:26.841Z,10
2017-07-05T16:14:35.800Z,15
2017-07-05T16:15:44.454Z,15
2017-07-05T16:16:53.222Z,10
2017-07-05T16:18:01.869Z,10
2017-07-05T16:19:11.160Z,10
2017-07-05T16:20:20.454Z,10
2017-07-05T16:21:29.735Z,5
2017-07-05T16:22:38.704Z,5
2017-07-05T16:23:47.382Z,5
2017-07-05T16:24:56.677Z,5
2017-07-05T16:26:05.637Z,10
2017-07-05T16:27:15.258Z,10
2017-07-05T16:28:24.535Z,10
2017-07-05T16:29:33.822Z,10